createdAt,value
2019-05-07T00:00:43.587Z,9.57
2019-05-07T00:03:12.231Z,9.43
2019-05-07T00:05:42.619Z,9.47
2019-05-07T00:08:12.199Z,10.37
2019-05-07T00:10:42.554Z,9.37
2019-05-07T00:15:49.719Z,10.87
2019-05-07T00:18:19.907Z,8.33
2019-05-07T00:20:49.838Z,9.43
2019-05-07T00:23:19.750Z,9.17
2019-05-07T00:25:49.677Z,10.30
2019-05-07T00:28:19.875Z,8.30
2019-05-07T00:30:51.989Z,10.17
2019-05-07T00:33:19.726Z,10.40
2019-05-07T00:35:49.658Z,13.43
2019-05-07T00:38:19.590Z,9.27
2019-05-07T00:40:49.519Z,9.30
2019-05-07T00:43:19.429Z,9.80
2019-05-07T00:45:49.354Z,9.37
2019-05-07T00:48:19.279Z,10.63
2019-05-07T00:50:49.801Z,12.03
2019-05-07T00:53:20.023Z,9.50
2019-05-07T00:55:49.947Z,11.63
2019-05-07T00:58:19.869Z,10.40
2019-05-07T01:00:49.813Z,11.50
2019-05-07T01:03:22.094Z,8.77
2019-05-07T01:05:50.014Z,10.60
2019-05-07T01:08:22.328Z,12.13
2019-05-07T01:10:49.866Z,12.07
2019-05-07T01:15:59.118Z,10.27
2019-05-07T01:18:29.054Z,13.27
2019-05-07T01:20:58.978Z,9.10
2019-05-07T01:23:29.227Z,11.37
2019-05-07T01:25:59.446Z,11.70
2019-05-07T01:28:29.364Z,12.43
2019-05-07T01:30:59.293Z,11.77
2019-05-07T01:33:29.226Z,16.30
2019-05-07T01:35:59.500Z,11.27
2019-05-07T01:38:29.722Z,13.60
2019-05-07T01:40:59.666Z,10.40
2019-05-07T01:43:31.958Z,12.03
2019-05-07T01:46:00.091Z,16.33
2019-05-07T01:48:32.200Z,9.77
2019-05-07T01:50:59.931Z,10.27
2019-05-07T01:53:32.179Z,11.40
2019-05-07T01:56:00.340Z,14.10
2019-05-07T01:58:30.266Z,11.70
2019-05-07T02:01:02.584Z,13.47
2019-05-07T02:03:32.624Z,11.27
2019-05-07T02:06:01.719Z,14.00
2019-05-07T02:08:29.960Z,13.17
2019-05-07T02:11:01.942Z,13.27
2019-05-07T02:16:09.489Z,11.37
2019-05-07T02:18:39.411Z,11.33
2019-05-07T02:21:09.606Z,12.80
2019-05-07T02:23:39.522Z,9.93
2019-05-07T02:26:09.454Z,10.60
2019-05-07T02:28:39.378Z,16.17
2019-05-07T02:31:09.314Z,9.70
2019-05-07T02:33:39.232Z,12.20
2019-05-07T02:36:09.150Z,16.30
2019-05-07T02:38:39.102Z,10.47
2019-05-07T02:41:09.322Z,13.10
2019-05-07T02:43:39.273Z,11.33
2019-05-07T02:46:25.031Z,11.13
2019-05-07T02:48:39.120Z,12.83
2019-05-07T02:51:09.032Z,12.77
2019-05-07T02:53:38.953Z,12.10
2019-05-07T02:56:08.864Z,14.57
2019-05-07T02:58:38.807Z,13.40
2019-05-07T03:01:08.771Z,12.80
2019-05-07T03:03:38.708Z,12.33
2019-05-07T03:06:08.639Z,12.17
2019-05-07T03:11:18.217Z,12.43
2019-05-07T03:13:48.165Z,13.53
2019-05-07T03:16:35.389Z,11.90
2019-05-07T03:18:48.093Z,14.43
2019-05-07T03:21:18.104Z,13.43
2019-05-07T03:23:47.934Z,16.57
2019-05-07T03:26:18.208Z,16.87
2019-05-07T03:28:48.164Z,13.60
2019-05-07T03:31:18.099Z,12.67
2019-05-07T03:33:48.177Z,12.93
2019-05-07T03:36:17.970Z,14.23
2019-05-07T03:38:48.183Z,11.70
2019-05-07T03:41:18.106Z,16.67
2019-05-07T03:46:27.386Z,12.13
2019-05-07T03:48:57.317Z,15.90
2019-05-07T03:51:27.258Z,12.37
2019-05-07T03:53:57.174Z,14.53
2019-05-07T03:56:27.094Z,17.67
2019-05-07T03:58:57.050Z,17.73
2019-05-07T04:01:27.231Z,16.93
2019-05-07T04:03:57.446Z,14.30
2019-05-07T04:06:27.378Z,13.90
2019-05-07T04:08:57.591Z,15.57
2019-05-07T04:11:27.513Z,16.17
2019-05-07T04:13:58.125Z,16.47
2019-05-07T04:16:28.039Z,14.57
2019-05-07T04:18:58.009Z,13.90
2019-05-07T04:21:28.276Z,14.73
2019-05-07T04:23:58.222Z,17.17
2019-05-07T04:26:28.123Z,14.37
2019-05-07T04:28:58.419Z,18.97
2019-05-07T04:31:28.367Z,15.47
2019-05-07T04:36:37.622Z,16.23
2019-05-07T04:39:07.913Z,16.50
2019-05-07T04:41:37.823Z,15.30
2019-05-07T04:44:07.765Z,17.00
2019-05-07T04:46:37.944Z,20.00
2019-05-07T04:49:07.875Z,22.80
2019-05-07T04:51:37.828Z,18.23
2019-05-07T04:54:07.785Z,28.23
2019-05-07T04:56:37.692Z,19.13
2019-05-07T04:59:07.955Z,16.77
2019-05-07T05:01:37.861Z,18.57
2019-05-07T05:04:21.999Z,19.50
2019-05-07T05:06:37.741Z,18.30
2019-05-07T05:09:07.719Z,17.90
2019-05-07T05:11:37.903Z,16.77
2019-05-07T05:16:47.446Z,16.60
2019-05-07T05:19:17.392Z,17.37
2019-05-07T05:21:47.322Z,21.47
2019-05-07T05:24:17.599Z,19.43
2019-05-07T05:26:47.523Z,18.87
2019-05-07T05:29:17.458Z,18.50
2019-05-07T05:31:47.646Z,19.07
2019-05-07T05:34:17.863Z,21.80
2019-05-07T05:36:47.799Z,20.17
2019-05-07T05:39:17.731Z,20.20
2019-05-07T05:41:47.657Z,20.57
2019-05-07T05:44:17.600Z,22.27
2019-05-07T05:46:47.533Z,23.87
2019-05-07T05:49:17.446Z,18.73
2019-05-07T05:51:47.387Z,21.27
2019-05-07T05:54:17.308Z,22.60
2019-05-07T05:56:47.236Z,20.53
2019-05-07T05:59:27.227Z,21.00
2019-05-07T06:01:47.094Z,20.33
2019-05-07T06:04:17.023Z,23.20
2019-05-07T06:06:46.966Z,20.23
2019-05-07T06:09:16.882Z,22.37
2019-05-07T06:11:46.840Z,24.03
2019-05-07T06:16:56.083Z,23.30
2019-05-07T06:19:26.014Z,21.53
2019-05-07T06:21:55.947Z,25.67
2019-05-07T06:27:05.503Z,20.40
2019-05-07T06:29:35.440Z,20.83
2019-05-07T06:32:05.383Z,22.73
2019-05-07T06:37:14.649Z,21.60
2019-05-07T06:39:44.580Z,24.73
2019-05-07T06:42:14.516Z,22.37
2019-05-07T06:44:44.429Z,21.50
2019-05-07T06:47:14.368Z,26.17
2019-05-07T06:49:44.647Z,24.53
2019-05-07T06:52:14.576Z,22.90
2019-05-07T06:54:44.781Z,26.70
2019-05-07T06:57:14.718Z,22.37
2019-05-07T06:59:44.640Z,24.63
2019-05-07T07:02:14.602Z,25.00
2019-05-07T07:04:44.516Z,23.23
2019-05-07T07:07:26.283Z,28.17
2019-05-07T07:09:44.690Z,20.80
2019-05-07T07:12:14.984Z,24.23
2019-05-07T07:14:44.927Z,23.40
2019-05-07T07:17:15.124Z,27.63
2019-05-07T07:19:45.063Z,26.43
2019-05-07T07:22:15.009Z,24.23
2019-05-07T07:24:44.929Z,21.87
2019-05-07T07:27:14.877Z,22.43
2019-05-07T07:29:45.121Z,26.73
2019-05-07T07:32:14.738Z,20.97
2019-05-07T07:34:44.660Z,18.53
2019-05-07T07:37:15.871Z,20.20
2019-05-07T07:39:44.524Z,21.27
2019-05-07T07:42:14.460Z,22.20
2019-05-07T07:44:44.385Z,23.60
2019-05-07T07:47:14.329Z,24.13
2019-05-07T07:49:44.243Z,18.90
2019-05-07T07:52:14.197Z,18.97
2019-05-07T07:54:44.124Z,17.93
2019-05-07T07:57:14.069Z,20.27
2019-05-07T07:59:44.007Z,21.87
2019-05-07T08:02:13.955Z,19.97
2019-05-07T08:04:44.187Z,18.90
2019-05-07T08:07:14.130Z,19.80
2019-05-07T08:09:44.047Z,20.37
2019-05-07T08:12:13.992Z,20.27
2019-05-07T08:14:43.907Z,20.37
2019-05-07T08:17:14.163Z,20.10
2019-05-07T08:19:44.122Z,17.93
2019-05-07T08:22:14.045Z,22.03
2019-05-07T08:24:43.975Z,24.57
2019-05-07T08:27:15.287Z,20.90
2019-05-07T08:29:43.837Z,19.90
2019-05-07T08:32:13.789Z,20.33
2019-05-07T08:34:43.703Z,23.70
2019-05-07T08:37:13.634Z,19.87
2019-05-07T08:39:43.564Z,20.60
2019-05-07T08:42:13.490Z,19.93
2019-05-07T08:44:43.422Z,22.30
2019-05-07T08:47:13.395Z,19.40
2019-05-07T08:49:43.640Z,19.03
2019-05-07T08:52:13.558Z,21.03
2019-05-07T08:54:43.521Z,19.37
2019-05-07T08:57:13.438Z,20.37
2019-05-07T08:59:57.184Z,19.73
2019-05-07T09:02:13.557Z,17.27
2019-05-07T09:04:43.494Z,15.87
2019-05-07T09:07:13.465Z,17.47
2019-05-07T09:09:43.350Z,17.63
2019-05-07T09:12:13.579Z,16.13
2019-05-07T09:14:43.518Z,14.17
2019-05-07T09:17:13.730Z,11.60
2019-05-07T09:19:50.797Z,12.10
2019-05-07T09:22:13.947Z,13.97
2019-05-07T09:24:43.921Z,13.13
2019-05-07T09:27:13.851Z,13.17
2019-05-07T09:29:43.787Z,10.07
2019-05-07T09:32:13.710Z,10.40
2019-05-07T09:34:43.660Z,12.47
2019-05-07T09:37:13.574Z,10.37
2019-05-07T09:39:43.515Z,10.30
2019-05-07T09:42:13.773Z,9.27
2019-05-07T09:44:43.705Z,8.17
2019-05-07T09:47:13.626Z,13.00
2019-05-07T09:49:43.566Z,10.10
2019-05-07T09:52:13.481Z,13.50
2019-05-07T09:54:43.410Z,11.63
2019-05-07T09:57:27.320Z,10.63
2019-05-07T09:59:43.561Z,8.50
2019-05-07T10:02:13.504Z,10.80
2019-05-07T10:04:43.438Z,8.90
2019-05-07T10:07:13.384Z,9.33
2019-05-07T10:09:43.623Z,9.83
2019-05-07T10:12:13.537Z,12.90
2019-05-07T10:14:43.769Z,8.60
2019-05-07T10:17:13.971Z,8.30
2019-05-07T10:19:43.914Z,8.17
2019-05-07T10:22:13.828Z,8.03
2019-05-07T10:24:44.154Z,7.83
2019-05-07T10:27:14.090Z,10.23
2019-05-07T10:29:44.021Z,8.47
2019-05-07T10:32:13.943Z,8.53
2019-05-07T10:34:44.189Z,7.07
2019-05-07T10:37:14.104Z,6.63
2019-05-07T10:39:44.043Z,9.27
2019-05-07T10:42:14.229Z,8.23
2019-05-07T10:44:44.159Z,8.73
2019-05-07T10:47:14.083Z,6.60
2019-05-07T10:49:44.032Z,6.70
2019-05-07T10:52:13.950Z,8.47
2019-05-07T10:54:56.534Z,7.07
2019-05-07T10:57:13.813Z,9.07
2019-05-07T10:59:43.753Z,7.87
2019-05-07T11:02:13.945Z,10.07
2019-05-07T11:04:45.921Z,7.70
2019-05-07T11:07:13.797Z,7.30
2019-05-07T11:09:43.718Z,7.70
2019-05-07T11:12:13.923Z,6.80
2019-05-07T11:17:23.458Z,5.60
2019-05-07T11:19:53.406Z,7.80
2019-05-07T11:22:23.318Z,5.83
2019-05-07T11:24:53.261Z,6.90
2019-05-07T11:27:23.191Z,7.10
2019-05-07T11:29:53.105Z,7.23
2019-05-07T11:32:23.039Z,6.83
2019-05-07T11:34:56.211Z,9.20
2019-05-07T11:37:22.910Z,6.37
2019-05-07T11:39:52.822Z,7.57
2019-05-07T11:42:23.109Z,6.50
2019-05-07T11:44:55.073Z,9.63
2019-05-07T11:47:22.959Z,7.37
2019-05-07T11:49:52.884Z,6.43
2019-05-07T11:52:22.881Z,6.57
2019-05-07T11:54:52.725Z,6.47
2019-05-07T11:57:22.704Z,7.30
2019-05-07T11:59:54.359Z,7.13
2019-05-07T12:02:22.740Z,7.43
2019-05-07T12:04:52.734Z,6.97
2019-05-07T12:07:22.748Z,6.67
2019-05-07T12:09:52.750Z,6.20
2019-05-07T12:12:22.617Z,6.30
2019-05-07T12:14:52.532Z,6.80
2019-05-07T12:17:22.478Z,5.43
2019-05-07T12:19:52.719Z,6.10
2019-05-07T12:22:22.442Z,4.63
2019-05-07T12:24:52.367Z,5.60
2019-05-07T12:27:23.079Z,6.43
2019-05-07T12:29:52.917Z,5.00
2019-05-07T12:32:22.798Z,4.97
2019-05-07T12:34:52.829Z,5.50
2019-05-07T12:37:22.964Z,6.80
2019-05-07T12:39:52.902Z,8.77
2019-05-07T12:42:22.841Z,4.90
2019-05-07T12:44:52.760Z,4.23
2019-05-07T12:47:22.993Z,4.17
2019-05-07T12:49:53.214Z,3.90
2019-05-07T12:52:23.148Z,6.10
2019-05-07T12:54:53.067Z,3.43
2019-05-07T12:57:22.997Z,5.62
2019-05-07T12:59:53.024Z,5.63
2019-05-07T13:02:37.329Z,5.23
2019-05-07T13:04:52.802Z,6.60
2019-05-07T13:07:22.741Z,7.67
2019-05-07T13:09:52.941Z,6.20
2019-05-07T13:12:22.857Z,4.00
2019-05-07T13:14:53.076Z,5.53
2019-05-07T13:17:23.012Z,6.60
2019-05-07T13:19:52.941Z,4.53
2019-05-07T13:22:22.865Z,6.40
2019-05-07T13:24:53.133Z,6.47
2019-05-07T13:27:23.077Z,4.87
2019-05-07T13:29:53.384Z,5.60
2019-05-07T13:32:23.338Z,5.90
2019-05-07T13:34:53.628Z,7.97
2019-05-07T13:37:23.826Z,4.30
2019-05-07T13:39:53.753Z,5.87
2019-05-07T13:47:42.340Z,4.50
2019-05-07T13:50:12.301Z,6.03
2019-05-07T13:52:43.319Z,6.77
2019-05-07T13:55:12.882Z,6.22
2019-05-07T13:57:42.381Z,6.20
2019-05-07T14:00:12.980Z,4.97
2019-05-07T14:02:42.514Z,7.43
2019-05-07T14:05:14.354Z,8.30
2019-05-07T14:07:42.951Z,5.03
2019-05-07T14:10:13.164Z,7.43
2019-05-07T14:12:43.110Z,5.87
2019-05-07T14:15:13.416Z,5.55
2019-05-07T14:17:43.344Z,5.10
2019-05-07T14:20:13.275Z,5.67
2019-05-07T14:22:43.196Z,5.70
2019-05-07T14:25:13.133Z,5.80
2019-05-07T14:27:43.381Z,6.12
2019-05-07T14:30:13.341Z,5.42
2019-05-07T14:32:43.266Z,7.15
2019-05-07T14:35:13.519Z,8.30
2019-05-07T14:37:43.465Z,9.80
2019-05-07T14:40:13.428Z,6.50
2019-05-07T14:42:43.322Z,6.83
2019-05-07T14:45:13.591Z,4.90
2019-05-07T14:47:44.713Z,5.47
2019-05-07T14:50:13.715Z,5.93
2019-05-07T14:52:43.669Z,4.70
2019-05-07T14:55:13.599Z,6.73
2019-05-07T14:57:43.527Z,7.97
2019-05-07T15:00:13.453Z,7.60
2019-05-07T15:02:43.693Z,7.20
2019-05-07T15:05:13.914Z,6.30
2019-05-07T15:07:43.838Z,5.20
2019-05-07T15:10:14.050Z,6.63
2019-05-07T15:12:43.964Z,6.73
2019-05-07T15:15:13.929Z,5.40
2019-05-07T15:17:43.870Z,6.67
2019-05-07T15:20:14.126Z,4.90
2019-05-07T15:22:49.516Z,10.10
2019-05-07T15:25:14.349Z,7.87
2019-05-07T15:27:44.574Z,4.73
2019-05-07T15:30:14.525Z,6.63
2019-05-07T15:32:44.442Z,8.78
2019-05-07T15:35:14.728Z,10.20
2019-05-07T15:37:44.650Z,6.60
2019-05-07T15:40:14.580Z,5.80
2019-05-07T15:42:44.505Z,13.38
2019-05-07T15:45:14.472Z,28.77
2019-05-07T15:47:44.409Z,45.05
2019-05-07T15:50:14.350Z,7.05
2019-05-07T15:52:51.442Z,46.33
2019-05-07T15:55:14.208Z,17.20
2019-05-07T15:57:44.471Z,15.65
2019-05-07T16:00:14.415Z,15.90
2019-05-07T16:02:45.314Z,15.83
2019-05-07T16:05:14.288Z,5.30
2019-05-07T16:07:44.214Z,6.57
2019-05-07T16:10:15.061Z,7.50
2019-05-07T16:12:44.661Z,7.33
2019-05-07T16:15:14.596Z,6.63
2019-05-07T16:17:44.886Z,9.40
2019-05-07T16:20:14.805Z,7.78
2019-05-07T16:22:45.015Z,6.03
2019-05-07T16:25:14.935Z,6.87
2019-05-07T16:30:24.223Z,8.33
2019-05-07T16:32:55.426Z,7.73
2019-05-07T16:35:24.412Z,5.95
2019-05-07T16:37:54.630Z,6.57
2019-05-07T16:40:24.565Z,9.80
2019-05-07T16:45:34.508Z,56.73
2019-05-07T16:48:04.457Z,66.55
2019-05-07T16:50:34.375Z,15.50
2019-05-07T16:53:04.322Z,16.37
2019-05-07T16:55:36.854Z,8.13
2019-05-07T16:58:04.516Z,5.37
2019-05-07T17:00:34.410Z,5.70
2019-05-07T17:03:04.587Z,8.37
2019-05-07T17:05:34.507Z,7.07
2019-05-07T17:08:04.758Z,6.23
2019-05-07T17:10:34.692Z,7.93
2019-05-07T17:15:44.323Z,7.33
2019-05-07T17:18:14.520Z,10.17
2019-05-07T17:20:44.791Z,6.73
2019-05-07T17:25:54.618Z,6.97
2019-05-07T17:28:24.589Z,10.93
2019-05-07T17:30:54.522Z,8.80
2019-05-07T17:33:24.430Z,8.27
2019-05-07T17:35:54.359Z,6.27
2019-05-07T17:38:24.587Z,6.77
2019-05-07T17:40:54.829Z,6.23
2019-05-07T17:43:25.132Z,6.95
2019-05-07T17:45:55.058Z,6.70
2019-05-07T17:48:25.268Z,6.70
2019-05-07T17:50:55.182Z,5.97
2019-05-07T17:58:43.770Z,8.07
2019-05-07T18:03:53.321Z,9.40
2019-05-07T18:06:23.308Z,8.77
2019-05-07T18:08:53.235Z,7.97
2019-05-07T18:11:24.334Z,6.70
2019-05-07T18:13:53.098Z,9.43
2019-05-07T18:16:23.016Z,5.80
2019-05-07T18:18:52.950Z,8.30
2019-05-07T18:21:22.862Z,5.57
2019-05-07T18:23:53.052Z,4.60
2019-05-07T18:26:30.321Z,6.23
2019-05-07T18:28:52.909Z,5.57
2019-05-07T18:31:22.816Z,5.17
2019-05-07T18:33:52.746Z,6.60
2019-05-07T18:36:23.008Z,4.57
2019-05-07T18:38:53.239Z,9.07
2019-05-07T18:41:23.174Z,4.87
2019-05-07T18:46:32.806Z,4.70
2019-05-07T18:49:03.414Z,5.93
2019-05-07T18:51:32.634Z,4.60
2019-05-07T18:54:02.573Z,5.10
2019-05-07T18:56:32.770Z,5.60
2019-05-07T18:59:02.702Z,5.23
2019-05-07T19:01:32.886Z,4.70
2019-05-07T19:04:02.813Z,6.03
2019-05-07T19:06:33.023Z,7.27
2019-05-07T19:09:03.344Z,8.07
2019-05-07T19:11:33.259Z,6.90
2019-05-07T19:14:03.204Z,7.90
2019-05-07T19:16:33.387Z,5.83
2019-05-07T19:19:03.373Z,7.50
2019-05-07T19:21:33.295Z,9.00
2019-05-07T19:24:03.228Z,6.10
2019-05-07T19:26:33.139Z,9.03
2019-05-07T19:29:03.069Z,5.33
2019-05-07T19:31:33.003Z,6.07
2019-05-07T19:34:03.156Z,8.07
2019-05-07T19:36:33.212Z,7.40
2019-05-07T19:39:03.433Z,8.87
2019-05-07T19:41:33.357Z,7.17
2019-05-07T19:44:03.286Z,7.97
2019-05-07T19:46:33.200Z,6.50
2019-05-07T19:49:03.150Z,7.43
2019-05-07T19:51:33.072Z,6.13
2019-05-07T19:54:03.014Z,5.87
2019-05-07T19:56:33.269Z,7.53
2019-05-07T19:59:03.547Z,7.17
2019-05-07T20:01:33.460Z,7.07
2019-05-07T20:04:03.682Z,8.47
2019-05-07T20:06:33.606Z,7.70
2019-05-07T20:09:11.966Z,7.40
2019-05-07T20:11:33.727Z,6.67
2019-05-07T20:14:03.974Z,7.37
2019-05-07T20:16:33.896Z,8.20
2019-05-07T20:19:03.837Z,9.00
2019-05-07T20:21:34.110Z,7.47
2019-05-07T20:24:04.321Z,8.17
2019-05-07T20:26:34.259Z,8.37
2019-05-07T20:29:04.194Z,7.40
2019-05-07T20:31:34.405Z,9.20
2019-05-07T20:34:04.321Z,8.20
2019-05-07T20:36:34.250Z,7.57
2019-05-07T20:39:04.159Z,7.43
2019-05-07T20:41:34.430Z,7.23
2019-05-07T20:44:04.346Z,9.97
2019-05-07T20:46:34.282Z,8.93
2019-05-07T20:49:04.217Z,8.43
2019-05-07T20:51:34.498Z,6.53
2019-05-07T20:54:04.721Z,8.40
2019-05-07T20:56:34.655Z,8.27
2019-05-07T20:59:04.590Z,8.77
2019-05-07T21:01:34.559Z,8.53
2019-05-07T21:04:04.520Z,9.50
2019-05-07T21:06:34.445Z,9.03
2019-05-07T21:11:43.437Z,8.10
2019-05-07T21:14:13.351Z,7.37
2019-05-07T21:16:43.295Z,9.77
2019-05-07T21:19:13.209Z,10.97
2019-05-07T21:21:43.145Z,10.33
2019-05-07T21:24:13.239Z,9.97
2019-05-07T21:26:43.315Z,10.23
2019-05-07T21:29:13.873Z,9.63
2019-05-07T21:31:43.353Z,9.93
2019-05-07T21:34:13.107Z,9.70
2019-05-07T21:36:43.513Z,12.03
2019-05-07T21:39:13.357Z,12.50
2019-05-07T21:41:43.230Z,10.00
2019-05-07T21:44:13.154Z,9.53
2019-05-07T21:46:43.154Z,9.30
2019-05-07T21:49:13.073Z,10.60
2019-05-07T21:51:43.002Z,10.83
2019-05-07T21:54:12.928Z,11.80
2019-05-07T21:56:42.870Z,11.53
2019-05-07T21:59:12.796Z,12.10
2019-05-07T22:01:43.695Z,13.43
2019-05-07T22:04:12.930Z,11.53
2019-05-07T22:06:45.410Z,11.30
2019-05-07T22:09:12.924Z,10.03
2019-05-07T22:11:42.853Z,9.60
2019-05-07T22:16:54.487Z,9.73
2019-05-07T22:22:02.884Z,9.00
2019-05-07T22:24:32.860Z,11.23
2019-05-07T22:27:01.750Z,8.73
2019-05-07T22:29:31.444Z,10.27
2019-05-07T22:32:02.762Z,10.80
2019-05-07T22:34:31.666Z,10.50
2019-05-07T22:37:03.303Z,11.60
2019-05-07T22:39:32.808Z,9.50
2019-05-07T22:42:02.506Z,10.13
2019-05-07T22:44:32.639Z,13.97
2019-05-07T22:47:02.855Z,9.43
2019-05-07T22:49:33.397Z,9.67
2019-05-07T22:52:03.024Z,11.10
2019-05-07T22:54:33.303Z,10.73
2019-05-07T22:57:03.534Z,10.83
2019-05-07T22:59:33.492Z,11.93
2019-05-07T23:02:03.789Z,10.37
2019-05-07T23:04:33.986Z,12.77
2019-05-07T23:07:03.927Z,11.23
2019-05-07T23:09:34.147Z,10.40
2019-05-07T23:12:04.080Z,12.70
2019-05-07T23:17:13.348Z,10.60
2019-05-07T23:19:43.623Z,11.83
2019-05-07T23:22:13.616Z,10.80
2019-05-07T23:24:43.459Z,11.20
2019-05-07T23:27:14.810Z,9.57
2019-05-07T23:29:43.904Z,13.03
2019-05-07T23:32:13.778Z,11.93
2019-05-07T23:34:44.024Z,9.63
2019-05-07T23:37:13.951Z,11.97
2019-05-07T23:39:43.886Z,10.10
2019-05-07T23:44:53.478Z,10.53
2019-05-07T23:47:23.415Z,10.23
2019-05-07T23:49:53.340Z,10.13
2019-05-07T23:52:23.257Z,11.50
2019-05-07T23:54:53.184Z,10.43
2019-05-07T23:57:23.348Z,13.43
2019-05-07T23:59:53.368Z,11.37
